sensor_id;sensor_type;location;lat;lon;timestamp;P1;P2;P0
79038;PMS5003;68436;55.068;73.284;2023-07-13T00:00:00;15.50;13.50;9.50
79038;PMS5003;68436;55.068;73.284;2023-07-13T00:02:34;21.50;19.50;13.00
79038;PMS5003;68436;55.068;73.284;2023-07-13T00:05:00;35.00;29.00;19.00
79038;PMS5003;68436;55.068;73.284;2023-07-13T00:07:35;20.00;18.00;12.00
79038;PMS5003;68436;55.068;73.284;2023-07-13T00:10:02;17.50;16.25;11.25
79038;PMS5003;68436;55.068;73.284;2023-07-13T00:12:35;18.00;15.00;10.00
79038;PMS5003;68436;55.068;73.284;2023-07-13T00:15:03;18.00;16.00;11.00
79038;PMS5003;68436;55.068;73.284;2023-07-13T00:17:34;19.00;16.00;11.00
79038;PMS5003;68436;55.068;73.284;2023-07-13T00:20:00;17.50;16.50;12.00
79038;PMS5003;68436;55.068;73.284;2023-07-13T00:22:34;19.33;18.00;12.67
79038;PMS5003;68436;55.068;73.284;2023-07-13T00:25:00;15.50;14.25;11.00
79038;PMS5003;68436;55.068;73.284;2023-07-13T00:27:34;17.00;15.00;10.00
79038;PMS5003;68436;55.068;73.284;2023-07-13T00:30:00;18.00;16.00;10.00
79038;PMS5003;68436;55.068;73.284;2023-07-13T00:32:34;17.00;15.00;10.00
79038;PMS5003;68436;55.068;73.284;2023-07-13T00:35:01;15.00;14.00;9.00
79038;PMS5003;68436;55.068;73.284;2023-07-13T00:37:35;16.00;15.00;11.00
79038;PMS5003;68436;55.068;73.284;2023-07-13T00:40:02;16.00;14.75;10.00
79038;PMS5003;68436;55.068;73.284;2023-07-13T00:42:34;15.00;13.00;9.00
79038;PMS5003;68436;55.068;73.284;2023-07-13T00:46:07;16.25;14.00;10.00
79038;PMS5003;68436;55.068;73.284;2023-07-13T00:47:53;16.25;14.50;10.75
79038;PMS5003;68436;55.068;73.284;2023-07-13T00:50:20;22.50;19.75;13.75
79038;PMS5003;68436;55.068;73.284;2023-07-13T00:52:48;19.00;17.25;12.00
79038;PMS5003;68436;55.068;73.284;2023-07-13T00:55:15;16.25;15.00;10.00
79038;PMS5003;68436;55.068;73.284;2023-07-13T00:57:41;26.25;22.25;15.00
79038;PMS5003;68436;55.068;73.284;2023-07-13T01:00:08;27.00;23.25;15.75
79038;PMS5003;68436;55.068;73.284;2023-07-13T01:02:41;20.00;18.00;14.00
79038;PMS5003;68436;55.068;73.284;2023-07-13T01:05:09;18.00;16.00;11.00
79038;PMS5003;68436;55.068;73.284;2023-07-13T01:07:35;14.50;12.50;9.00
79038;PMS5003;68436;55.068;73.284;2023-07-13T01:10:02;16.25;15.00;11.00
79038;PMS5003;68436;55.068;73.284;2023-07-13T01:12:46;30.00;26.00;16.25
79038;PMS5003;68436;55.068;73.284;2023-07-13T01:18:19;19.00;16.00;12.00
79038;PMS5003;68436;55.068;73.284;2023-07-13T01:20:53;21.75;20.00;12.00
79038;PMS5003;68436;55.068;73.284;2023-07-13T01:23:19;22.50;19.25;13.50
79038;PMS5003;68436;55.068;73.284;2023-07-13T01:25:47;18.25;16.75;11.50
79038;PMS5003;68436;55.068;73.284;2023-07-13T01:28:13;22.00;20.00;13.00
79038;PMS5003;68436;55.068;73.284;2023-07-13T01:30:43;24.00;20.50;13.00
79038;PMS5003;68436;55.068;73.284;2023-07-13T01:33:12;23.00;21.00;15.00
79038;PMS5003;68436;55.068;73.284;2023-07-13T01:35:38;24.00;21.00;14.00
79038;PMS5003;68436;55.068;73.284;2023-07-13T01:38:04;31.00;26.00;17.00
79038;PMS5003;68436;55.068;73.284;2023-07-13T01:40:31;34.00;27.00;18.00
79038;PMS5003;68436;55.068;73.284;2023-07-13T01:42:58;29.50;24.25;15.25
79038;PMS5003;68436;55.068;73.284;2023-07-13T01:45:24;24.50;21.75;14.25
79038;PMS5003;68436;55.068;73.284;2023-07-13T01:47:50;25.00;22.00;14.00
79038;PMS5003;68436;55.068;73.284;2023-07-13T01:50:16;24.00;21.00;14.00
79038;PMS5003;68436;55.068;73.284;2023-07-13T01:52:42;26.75;23.25;15.50
79038;PMS5003;68436;55.068;73.284;2023-07-13T01:55:08;23.00;21.00;15.00
79038;PMS5003;68436;55.068;73.284;2023-07-13T01:57:34;37.00;30.00;19.00
79038;PMS5003;68436;55.068;73.284;2023-07-13T02:00:03;22.50;20.00;14.00
79038;PMS5003;68436;55.068;73.284;2023-07-13T02:02:41;21.00;19.00;14.00
79038;PMS5003;68436;55.068;73.284;2023-07-13T02:05:09;29.50;25.75;17.50
79038;PMS5003;68436;55.068;73.284;2023-07-13T02:07:35;27.00;23.00;14.00
79038;PMS5003;68436;55.068;73.284;2023-07-13T02:10:03;23.75;21.00;14.25
79038;PMS5003;68436;55.068;73.284;2023-07-13T02:12:35;22.00;20.00;14.00
79038;PMS5003;68436;55.068;73.284;2023-07-13T02:15:01;23.00;21.00;14.00
79038;PMS5003;68436;55.068;73.284;2023-07-13T02:17:35;27.00;24.00;16.00
79038;PMS5003;68436;55.068;73.284;2023-07-13T02:20:01;24.00;22.00;15.00
79038;PMS5003;68436;55.068;73.284;2023-07-13T02:22:34;27.00;24.00;16.00
79038;PMS5003;68436;55.068;73.284;2023-07-13T02:25:00;27.00;24.00;17.00
79038;PMS5003;68436;55.068;73.284;2023-07-13T02:27:34;28.00;25.00;17.00
79038;PMS5003;68436;55.068;73.284;2023-07-13T02:30:00;31.25;25.50;17.00
79038;PMS5003;68436;55.068;73.284;2023-07-13T02:32:34;25.00;22.00;16.00
79038;PMS5003;68436;55.068;73.284;2023-07-13T02:35:01;24.50;22.00;16.00
79038;PMS5003;68436;55.068;73.284;2023-07-13T02:37:34;27.00;24.50;17.00
79038;PMS5003;68436;55.068;73.284;2023-07-13T02:40:01;29.25;25.25;17.00
79038;PMS5003;68436;55.068;73.284;2023-07-13T02:42:34;28.00;25.00;18.00
79038;PMS5003;68436;55.068;73.284;2023-07-13T02:45:00;27.00;23.75;15.75
79038;PMS5003;68436;55.068;73.284;2023-07-13T02:47:35;26.00;24.00;16.00
79038;PMS5003;68436;55.068;73.284;2023-07-13T02:50:01;29.00;25.00;18.00
79038;PMS5003;68436;55.068;73.284;2023-07-13T02:52:34;29.00;25.00;18.00
79038;PMS5003;68436;55.068;73.284;2023-07-13T02:55:01;29.50;26.00;18.00
79038;PMS5003;68436;55.068;73.284;2023-07-13T02:57:34;29.00;26.00;18.00
79038;PMS5003;68436;55.068;73.284;2023-07-13T03:00:01;28.25;25.00;18.00
79038;PMS5003;68436;55.068;73.284;2023-07-13T03:02:34;33.00;28.00;19.00
79038;PMS5003;68436;55.068;73.284;2023-07-13T03:05:01;35.00;29.25;20.00
79038;PMS5003;68436;55.068;73.284;2023-07-13T03:07:34;33.00;29.00;20.00
79038;PMS5003;68436;55.068;73.284;2023-07-13T03:10:01;29.75;25.50;18.25
79038;PMS5003;68436;55.068;73.284;2023-07-13T03:12:37;33.00;28.50;21.00
79038;PMS5003;68436;55.068;73.284;2023-07-13T03:15:16;28.50;25.25;17.00
79038;PMS5003;68436;55.068;73.284;2023-07-13T03:17:44;32.25;28.00;19.00
79038;PMS5003;68436;55.068;73.284;2023-07-13T03:20:10;34.00;29.00;19.00
79038;PMS5003;68436;55.068;73.284;2023-07-13T03:22:37;31.00;27.00;17.67
79038;PMS5003;68436;55.068;73.284;2023-07-13T03:25:04;32.00;27.00;18.00
79038;PMS5003;68436;55.068;73.284;2023-07-13T03:27:34;34.00;27.00;18.00
79038;PMS5003;68436;55.068;73.284;2023-07-13T03:30:01;32.00;27.00;18.00
79038;PMS5003;68436;55.068;73.284;2023-07-13T03:32:34;33.00;28.00;18.00
79038;PMS5003;68436;55.068;73.284;2023-07-13T03:35:00;35.00;30.00;20.75
79038;PMS5003;68436;55.068;73.284;2023-07-13T03:37:34;38.00;32.00;21.00
79038;PMS5003;68436;55.068;73.284;2023-07-13T03:40:01;45.50;37.50;24.00
79038;PMS5003;68436;55.068;73.284;2023-07-13T03:42:34;31.00;27.00;18.00
79038;PMS5003;68436;55.068;73.284;2023-07-13T03:45:01;34.00;29.00;20.00
79038;PMS5003;68436;55.068;73.284;2023-07-13T03:47:34;54.00;42.00;27.00
79038;PMS5003;68436;55.068;73.284;2023-07-13T03:50:03;43.00;35.00;22.75
79038;PMS5003;68436;55.068;73.284;2023-07-13T03:52:34;39.00;33.00;22.00
79038;PMS5003;68436;55.068;73.284;2023-07-13T03:55:00;39.00;31.75;22.00
79038;PMS5003;68436;55.068;73.284;2023-07-13T03:57:34;42.00;35.00;23.00
79038;PMS5003;68436;55.068;73.284;2023-07-13T04:00:01;40.00;33.00;23.00
79038;PMS5003;68436;55.068;73.284;2023-07-13T04:02:34;39.00;32.00;21.00
79038;PMS5003;68436;55.068;73.284;2023-07-13T04:05:01;36.75;31.00;21.00
79038;PMS5003;68436;55.068;73.284;2023-07-13T04:07:34;39.00;31.67;22.00
79038;PMS5003;68436;55.068;73.284;2023-07-13T04:10:00;37.00;31.25;21.00
79038;PMS5003;68436;55.068;73.284;2023-07-13T04:12:34;37.67;32.00;22.00
79038;PMS5003;68436;55.068;73.284;2023-07-13T04:15:00;40.25;33.00;22.50
79038;PMS5003;68436;55.068;73.284;2023-07-13T04:17:34;40.00;34.00;23.00
79038;PMS5003;68436;55.068;73.284;2023-07-13T04:20:00;43.75;36.00;24.00
79038;PMS5003;68436;55.068;73.284;2023-07-13T04:22:34;43.00;35.00;24.00
79038;PMS5003;68436;55.068;73.284;2023-07-13T04:25:02;44.00;36.00;24.00
79038;PMS5003;68436;55.068;73.284;2023-07-13T04:27:34;41.00;34.00;24.00
79038;PMS5003;68436;55.068;73.284;2023-07-13T04:30:00;47.00;38.00;26.00
79038;PMS5003;68436;55.068;73.284;2023-07-13T04:32:34;44.00;36.67;24.00
79038;PMS5003;68436;55.068;73.284;2023-07-13T04:35:00;43.00;36.00;24.00
79038;PMS5003;68436;55.068;73.284;2023-07-13T04:37:34;47.67;37.33;25.00
79038;PMS5003;68436;55.068;73.284;2023-07-13T04:40:01;43.00;35.25;24.00
79038;PMS5003;68436;55.068;73.284;2023-07-13T04:42:34;44.67;37.00;24.33
79038;PMS5003;68436;55.068;73.284;2023-07-13T04:45:00;49.50;39.00;26.00
79038;PMS5003;68436;55.068;73.284;2023-07-13T04:47:34;44.67;38.00;25.00
79038;PMS5003;68436;55.068;73.284;2023-07-13T04:50:00;42.00;35.75;24.00
79038;PMS5003;68436;55.068;73.284;2023-07-13T04:52:34;43.00;37.00;25.00
79038;PMS5003;68436;55.068;73.284;2023-07-13T04:55:00;45.00;38.00;26.00
79038;PMS5003;68436;55.068;73.284;2023-07-13T04:57:34;46.67;38.67;26.00
79038;PMS5003;68436;55.068;73.284;2023-07-13T05:00:00;55.50;42.00;26.75
79038;PMS5003;68436;55.068;73.284;2023-07-13T05:02:34;42.00;35.00;25.00
79038;PMS5003;68436;55.068;73.284;2023-07-13T05:05:01;44.00;37.00;26.00
79038;PMS5003;68436;55.068;73.284;2023-07-13T05:07:34;48.00;39.33;27.00
79038;PMS5003;68436;55.068;73.284;2023-07-13T05:10:01;45.00;38.00;26.00
79038;PMS5003;68436;55.068;73.284;2023-07-13T05:12:40;46.25;38.75;27.00
79038;PMS5003;68436;55.068;73.284;2023-07-13T05:15:06;46.75;39.00;27.00
79038;PMS5003;68436;55.068;73.284;2023-07-13T05:17:34;60.00;47.00;30.00
79038;PMS5003;68436;55.068;73.284;2023-07-13T05:20:00;62.00;50.00;32.50
79038;PMS5003;68436;55.068;73.284;2023-07-13T05:22:34;56.00;45.00;30.00
79038;PMS5003;68436;55.068;73.284;2023-07-13T05:25:03;72.75;60.25;38.25
79038;PMS5003;68436;55.068;73.284;2023-07-13T05:27:35;61.00;48.00;32.00
79038;PMS5003;68436;55.068;73.284;2023-07-13T05:30:02;151.00;131.50;79.50
79038;PMS5003;68436;55.068;73.284;2023-07-13T05:32:34;106.00;86.00;50.00
79038;PMS5003;68436;55.068;73.284;2023-07-13T05:35:00;63.25;49.75;32.75
79038;PMS5003;68436;55.068;73.284;2023-07-13T05:37:34;71.00;58.00;37.00
79038;PMS5003;68436;55.068;73.284;2023-07-13T05:40:00;53.50;44.25;30.00
79038;PMS5003;68436;55.068;73.284;2023-07-13T05:42:34;52.00;42.00;28.33
79038;PMS5003;68436;55.068;73.284;2023-07-13T05:45:01;73.50;60.25;37.50
79038;PMS5003;68436;55.068;73.284;2023-07-13T05:47:34;58.00;47.67;32.00
79038;PMS5003;68436;55.068;73.284;2023-07-13T05:50:01;59.00;47.25;32.00
79038;PMS5003;68436;55.068;73.284;2023-07-13T05:52:34;74.00;61.00;40.67
79038;PMS5003;68436;55.068;73.284;2023-07-13T05:55:00;52.00;43.00;29.00
79038;PMS5003;68436;55.068;73.284;2023-07-13T05:57:34;110.33;94.00;58.00
79038;PMS5003;68436;55.068;73.284;2023-07-13T06:00:00;62.00;49.00;32.00
79038;PMS5003;68436;55.068;73.284;2023-07-13T06:02:37;53.67;44.00;29.33
79038;PMS5003;68436;55.068;73.284;2023-07-13T06:05:03;61.00;49.25;32.00
79038;PMS5003;68436;55.068;73.284;2023-07-13T06:07:34;50.00;41.50;28.00
79038;PMS5003;68436;55.068;73.284;2023-07-13T06:10:00;53.50;44.75;31.00
79038;PMS5003;68436;55.068;73.284;2023-07-13T06:12:34;48.33;40.00;27.00
79038;PMS5003;68436;55.068;73.284;2023-07-13T06:15:01;49.00;41.00;28.00
79038;PMS5003;68436;55.068;73.284;2023-07-13T06:17:34;55.00;43.00;29.00
79038;PMS5003;68436;55.068;73.284;2023-07-13T06:20:00;114.00;98.00;60.75
79038;PMS5003;68436;55.068;73.284;2023-07-13T06:22:34;63.00;50.00;33.00
79038;PMS5003;68436;55.068;73.284;2023-07-13T06:25:00;77.25;59.50;36.25
79038;PMS5003;68436;55.068;73.284;2023-07-13T06:27:34;58.00;46.67;30.67
79038;PMS5003;68436;55.068;73.284;2023-07-13T06:30:01;39.50;34.50;24.00
79038;PMS5003;68436;55.068;73.284;2023-07-13T06:32:34;99.00;87.00;55.00
79038;PMS5003;68436;55.068;73.284;2023-07-13T06:35:01;67.75;54.75;35.00
79038;PMS5003;68436;55.068;73.284;2023-07-13T06:37:34;39.67;33.67;23.00
79038;PMS5003;68436;55.068;73.284;2023-07-13T06:40:00;58.75;48.25;31.50
79038;PMS5003;68436;55.068;73.284;2023-07-13T06:42:34;42.67;36.00;24.67
79038;PMS5003;68436;55.068;73.284;2023-07-13T06:45:01;60.25;49.00;32.00
79038;PMS5003;68436;55.068;73.284;2023-07-13T06:47:34;64.00;52.50;33.50
79038;PMS5003;68436;55.068;73.284;2023-07-13T06:50:00;59.00;48.00;31.00
79038;PMS5003;68436;55.068;73.284;2023-07-13T06:52:34;39.67;34.00;23.00
79038;PMS5003;68436;55.068;73.284;2023-07-13T06:55:00;50.50;41.50;27.25
79038;PMS5003;68436;55.068;73.284;2023-07-13T06:57:34;44.00;36.00;24.00
79038;PMS5003;68436;55.068;73.284;2023-07-13T07:00:00;35.00;31.00;22.00
79038;PMS5003;68436;55.068;73.284;2023-07-13T07:02:34;40.00;34.00;24.00
79038;PMS5003;68436;55.068;73.284;2023-07-13T07:05:00;33.00;30.00;21.25
79038;PMS5003;68436;55.068;73.284;2023-07-13T07:07:34;34.50;29.50;21.00
79038;PMS5003;68436;55.068;73.284;2023-07-13T07:10:02;39.00;32.00;22.00
79038;PMS5003;68436;55.068;73.284;2023-07-13T07:12:34;44.00;38.00;27.00
79038;PMS5003;68436;55.068;73.284;2023-07-13T07:15:00;48.75;40.00;28.00
79038;PMS5003;68436;55.068;73.284;2023-07-13T07:17:34;34.00;29.00;20.00
79038;PMS5003;68436;55.068;73.284;2023-07-13T07:20:00;88.75;80.75;51.25
79038;PMS5003;68436;55.068;73.284;2023-07-13T07:22:34;45.00;38.00;25.00
79038;PMS5003;68436;55.068;73.284;2023-07-13T07:25:00;37.00;31.50;22.00
79038;PMS5003;68436;55.068;73.284;2023-07-13T07:27:34;41.67;33.67;23.00
79038;PMS5003;68436;55.068;73.284;2023-07-13T07:30:00;37.25;31.75;21.00
79038;PMS5003;68436;55.068;73.284;2023-07-13T07:32:34;42.00;34.00;24.00
79038;PMS5003;68436;55.068;73.284;2023-07-13T07:35:01;44.00;37.00;25.00
79038;PMS5003;68436;55.068;73.284;2023-07-13T07:37:34;39.00;33.00;23.00
79038;PMS5003;68436;55.068;73.284;2023-07-13T07:40:00;129.00;76.25;37.75
79038;PMS5003;68436;55.068;73.284;2023-07-13T07:42:34;39.00;34.00;23.00
79038;PMS5003;68436;55.068;73.284;2023-07-13T07:45:01;41.50;34.00;23.00
79038;PMS5003;68436;55.068;73.284;2023-07-13T07:47:34;44.00;36.00;23.00
79038;PMS5003;68436;55.068;73.284;2023-07-13T07:50:00;53.50;43.00;29.00
79038;PMS5003;68436;55.068;73.284;2023-07-13T07:52:34;47.67;40.00;27.00
79038;PMS5003;68436;55.068;73.284;2023-07-13T07:55:00;56.00;46.00;31.75
79038;PMS5003;68436;55.068;73.284;2023-07-13T07:57:34;57.67;47.67;32.00
79038;PMS5003;68436;55.068;73.284;2023-07-13T08:00:00;134.75;118.75;69.00
79038;PMS5003;68436;55.068;73.284;2023-07-13T08:02:34;45.33;37.67;26.33
79038;PMS5003;68436;55.068;73.284;2023-07-13T08:05:01;53.25;44.00;29.00
79038;PMS5003;68436;55.068;73.284;2023-07-13T08:07:35;51.67;42.00;28.67
79038;PMS5003;68436;55.068;73.284;2023-07-13T08:10:01;56.00;45.00;30.25
79038;PMS5003;68436;55.068;73.284;2023-07-13T08:12:35;47.67;40.67;28.00
79038;PMS5003;68436;55.068;73.284;2023-07-13T08:15:01;56.50;46.00;31.50
79038;PMS5003;68436;55.068;73.284;2023-07-13T08:17:34;49.00;40.00;27.33
79038;PMS5003;68436;55.068;73.284;2023-07-13T08:20:00;54.25;45.00;30.00
79038;PMS5003;68436;55.068;73.284;2023-07-13T08:22:35;61.00;49.00;31.00
79038;PMS5003;68436;55.068;73.284;2023-07-13T08:25:01;54.50;44.00;30.00
79038;PMS5003;68436;55.068;73.284;2023-07-13T08:27:34;59.00;48.00;32.00
79038;PMS5003;68436;55.068;73.284;2023-07-13T08:30:00;44.00;33.50;22.00
79038;PMS5003;68436;55.068;73.284;2023-07-13T08:32:35;28.00;24.33;16.33
79038;PMS5003;68436;55.068;73.284;2023-07-13T08:35:02;44.75;36.00;24.00
79038;PMS5003;68436;55.068;73.284;2023-07-13T08:37:34;22.00;19.00;13.00
79038;PMS5003;68436;55.068;73.284;2023-07-13T08:40:00;18.00;16.50;11.50
79038;PMS5003;68436;55.068;73.284;2023-07-13T08:42:47;26.00;23.00;14.00
79038;PMS5003;68436;55.068;73.284;2023-07-13T08:47:44;25.00;22.00;15.00
79038;PMS5003;68436;55.068;73.284;2023-07-13T08:50:12;18.00;16.00;11.00
79038;PMS5003;68436;55.068;73.284;2023-07-13T08:52:40;16.00;14.80;9.80
79038;PMS5003;68436;55.068;73.284;2023-07-13T08:55:20;28.50;24.00;15.75
79038;PMS5003;68436;55.068;73.284;2023-07-13T08:57:48;50.50;35.00;20.50
79038;PMS5003;68436;55.068;73.284;2023-07-13T09:00:16;33.00;25.00;15.25
79038;PMS5003;68436;55.068;73.284;2023-07-13T09:02:46;31.00;25.00;15.25
79038;PMS5003;68436;55.068;73.284;2023-07-13T09:05:17;28.50;24.25;15.00
79038;PMS5003;68436;55.068;73.284;2023-07-13T09:13:07;35.33;29.67;19.33
79038;PMS5003;68436;55.068;73.284;2023-07-13T09:15:39;55.00;43.00;25.75
79038;PMS5003;68436;55.068;73.284;2023-07-13T09:23:17;38.00;30.00;18.50
79038;PMS5003;68436;55.068;73.284;2023-07-13T09:25:46;33.50;26.00;15.50
79038;PMS5003;68436;55.068;73.284;2023-07-13T09:33:05;29.00;26.00;18.00
79038;PMS5003;68436;55.068;73.284;2023-07-13T09:35:30;21.75;19.75;14.00
79038;PMS5003;68436;55.068;73.284;2023-07-13T09:37:57;16.00;14.00;11.00
79038;PMS5003;68436;55.068;73.284;2023-07-13T09:40:25;18.00;17.00;12.00
79038;PMS5003;68436;55.068;73.284;2023-07-13T09:42:54;19.25;18.00;13.00
79038;PMS5003;68436;55.068;73.284;2023-07-13T09:45:29;29.75;26.00;18.00
79038;PMS5003;68436;55.068;73.284;2023-07-13T09:47:59;17.00;16.00;12.00
79038;PMS5003;68436;55.068;73.284;2023-07-13T09:50:29;18.00;17.00;12.25
79038;PMS5003;68436;55.068;73.284;2023-07-13T09:52:55;18.67;17.00;12.00
79038;PMS5003;68436;55.068;73.284;2023-07-13T09:55:31;19.50;18.25;13.00
79038;PMS5003;68436;55.068;73.284;2023-07-13T09:58:41;22.75;21.25;14.75
79038;PMS5003;68436;55.068;73.284;2023-07-13T10:01:00;29.25;25.00;16.25
79038;PMS5003;68436;55.068;73.284;2023-07-13T10:03:30;27.00;23.00;15.00
79038;PMS5003;68436;55.068;73.284;2023-07-13T10:06:16;23.25;22.00;14.00
79038;PMS5003;68436;55.068;73.284;2023-07-13T10:08:44;27.00;23.33;15.33
79038;PMS5003;68436;55.068;73.284;2023-07-13T10:11:12;38.00;31.00;19.75
79038;PMS5003;68436;55.068;73.284;2023-07-13T10:13:46;34.00;29.00;19.00
79038;PMS5003;68436;55.068;73.284;2023-07-13T10:16:14;23.25;21.00;14.25
79038;PMS5003;68436;55.068;73.284;2023-07-13T10:19:17;23.00;21.00;15.00
79038;PMS5003;68436;55.068;73.284;2023-07-13T10:21:35;27.00;22.75;14.00
79038;PMS5003;68436;55.068;73.284;2023-07-13T10:26:46;15.00;14.00;10.00
79038;PMS5003;68436;55.068;73.284;2023-07-13T10:29:14;24.00;21.00;14.00
79038;PMS5003;68436;55.068;73.284;2023-07-13T10:31:41;28.25;23.00;15.00
79038;PMS5003;68436;55.068;73.284;2023-07-13T10:34:10;21.00;18.00;12.50
79038;PMS5003;68436;55.068;73.284;2023-07-13T10:36:42;21.25;18.50;12.00
79038;PMS5003;68436;55.068;73.284;2023-07-13T10:39:10;30.00;23.33;15.67
79038;PMS5003;68436;55.068;73.284;2023-07-13T10:41:39;20.75;18.75;13.00
79038;PMS5003;68436;55.068;73.284;2023-07-13T10:44:11;18.00;17.00;13.00
79038;PMS5003;68436;55.068;73.284;2023-07-13T10:46:41;25.75;22.00;15.00
79038;PMS5003;68436;55.068;73.284;2023-07-13T10:49:09;37.00;30.00;19.00
79038;PMS5003;68436;55.068;73.284;2023-07-13T10:51:37;20.00;18.00;13.00
79038;PMS5003;68436;55.068;73.284;2023-07-13T10:54:36;23.00;21.67;14.00
79038;PMS5003;68436;55.068;73.284;2023-07-13T10:59:48;21.00;18.75;13.00
79038;PMS5003;68436;55.068;73.284;2023-07-13T11:02:26;20.00;18.50;13.00
79038;PMS5003;68436;55.068;73.284;2023-07-13T11:04:54;23.00;20.00;14.00
79038;PMS5003;68436;55.068;73.284;2023-07-13T11:09:49;38.00;31.33;19.00
79038;PMS5003;68436;55.068;73.284;2023-07-13T11:14:59;31.00;26.00;15.00
79038;PMS5003;68436;55.068;73.284;2023-07-13T11:22:49;30.00;25.50;15.75
79038;PMS5003;68436;55.068;73.284;2023-07-13T11:25:26;16.00;14.00;10.50
79038;PMS5003;68436;55.068;73.284;2023-07-13T11:28:37;14.75;13.75;9.25
79038;PMS5003;68436;55.068;73.284;2023-07-13T11:33:22;34.00;28.00;18.00
79038;PMS5003;68436;55.068;73.284;2023-07-13T11:36:00;38.00;30.25;18.00
79038;PMS5003;68436;55.068;73.284;2023-07-13T11:41:13;59.50;47.00;27.00
79038;PMS5003;68436;55.068;73.284;2023-07-13T11:43:40;18.00;16.00;11.00
79038;PMS5003;68436;55.068;73.284;2023-07-13T11:46:13;18.00;16.00;12.00
79038;PMS5003;68436;55.068;73.284;2023-07-13T11:48:40;31.00;27.00;18.00
79038;PMS5003;68436;55.068;73.284;2023-07-13T11:51:06;34.50;29.00;18.00
79038;PMS5003;68436;55.068;73.284;2023-07-13T11:53:44;33.00;28.00;18.00
79038;PMS5003;68436;55.068;73.284;2023-07-13T11:56:18;37.00;30.00;20.00
79038;PMS5003;68436;55.068;73.284;2023-07-13T11:59:05;43.00;34.00;20.00
79038;PMS5003;68436;55.068;73.284;2023-07-13T12:01:32;39.50;33.00;20.00
79038;PMS5003;68436;55.068;73.284;2023-07-13T12:04:05;41.00;33.00;22.00
79038;PMS5003;68436;55.068;73.284;2023-07-13T12:06:33;40.00;34.00;22.00
79038;PMS5003;68436;55.068;73.284;2023-07-13T12:09:03;38.33;33.00;22.00
79038;PMS5003;68436;55.068;73.284;2023-07-13T12:11:29;41.50;36.00;24.00
79038;PMS5003;68436;55.068;73.284;2023-07-13T12:13:55;23.00;21.00;14.00
79038;PMS5003;68436;55.068;73.284;2023-07-13T12:18:48;58.00;46.00;28.00
79038;PMS5003;68436;55.068;73.284;2023-07-13T12:21:16;68.50;55.75;34.25
79038;PMS5003;68436;55.068;73.284;2023-07-13T12:23:43;84.33;75.00;46.67
79038;PMS5003;68436;55.068;73.284;2023-07-13T12:26:10;68.00;54.00;34.25
79038;PMS5003;68436;55.068;73.284;2023-07-13T12:28:38;70.00;58.00;35.67
79038;PMS5003;68436;55.068;73.284;2023-07-13T12:31:06;72.00;60.00;37.00
79038;PMS5003;68436;55.068;73.284;2023-07-13T12:33:32;75.00;65.33;41.67
79038;PMS5003;68436;55.068;73.284;2023-07-13T12:36:02;56.00;46.00;30.00
79038;PMS5003;68436;55.068;73.284;2023-07-13T12:38:30;45.67;38.33;25.00
79038;PMS5003;68436;55.068;73.284;2023-07-13T12:40:57;48.75;41.25;28.00
79038;PMS5003;68436;55.068;73.284;2023-07-13T12:43:23;50.75;42.50;28.00
79038;PMS5003;68436;55.068;73.284;2023-07-13T12:46:20;75.00;63.75;40.00
79038;PMS5003;68436;55.068;73.284;2023-07-13T12:48:51;41.00;34.33;22.67
79038;PMS5003;68436;55.068;73.284;2023-07-13T12:51:20;41.50;35.00;22.00
79038;PMS5003;68436;55.068;73.284;2023-07-13T12:53:47;18.00;16.33;11.33
79038;PMS5003;68436;55.068;73.284;2023-07-13T12:56:19;18.00;17.00;12.00
79038;PMS5003;68436;55.068;73.284;2023-07-13T12:58:45;29.00;24.75;16.00
79038;PMS5003;68436;55.068;73.284;2023-07-13T13:01:14;39.75;31.00;17.75
79038;PMS5003;68436;55.068;73.284;2023-07-13T13:03:44;46.00;35.00;20.50
79038;PMS5003;68436;55.068;73.284;2023-07-13T13:08:50;22.67;20.33;14.00
79038;PMS5003;68436;55.068;73.284;2023-07-13T13:11:16;18.00;16.00;11.00
79038;PMS5003;68436;55.068;73.284;2023-07-13T13:13:43;18.00;17.00;12.00
79038;PMS5003;68436;55.068;73.284;2023-07-13T13:18:48;17.33;16.00;11.33
79038;PMS5003;68436;55.068;73.284;2023-07-13T13:21:15;20.00;18.00;12.00
79038;PMS5003;68436;55.068;73.284;2023-07-13T13:23:41;21.33;19.00;12.00
79038;PMS5003;68436;55.068;73.284;2023-07-13T13:26:09;55.50;40.75;24.00
79038;PMS5003;68436;55.068;73.284;2023-07-13T13:28:36;26.33;23.33;15.00
79038;PMS5003;68436;55.068;73.284;2023-07-13T13:31:02;31.75;26.00;16.25
79038;PMS5003;68436;55.068;73.284;2023-07-13T13:33:28;21.00;19.00;13.00
79038;PMS5003;68436;55.068;73.284;2023-07-13T13:35:54;20.00;18.00;12.00
79038;PMS5003;68436;55.068;73.284;2023-07-13T13:38:20;33.00;26.00;15.00
79038;PMS5003;68436;55.068;73.284;2023-07-13T13:40:49;42.50;33.25;19.00
79038;PMS5003;68436;55.068;73.284;2023-07-13T13:43:23;21.67;19.67;13.00
79038;PMS5003;68436;55.068;73.284;2023-07-13T13:45:53;19.00;17.00;12.00
79038;PMS5003;68436;55.068;73.284;2023-07-13T13:48:31;19.00;17.00;11.33
79038;PMS5003;68436;55.068;73.284;2023-07-13T13:50:58;21.00;19.00;13.00
79038;PMS5003;68436;55.068;73.284;2023-07-13T13:53:25;23.00;20.00;14.00
79038;PMS5003;68436;55.068;73.284;2023-07-13T13:55:51;23.00;20.25;13.00
79038;PMS5003;68436;55.068;73.284;2023-07-13T13:58:18;19.33;18.00;13.00
79038;PMS5003;68436;55.068;73.284;2023-07-13T14:00:45;20.00;19.00;13.00
79038;PMS5003;68436;55.068;73.284;2023-07-13T14:03:15;26.00;23.00;15.00
79038;PMS5003;68436;55.068;73.284;2023-07-13T14:05:42;25.50;22.25;15.00
79038;PMS5003;68436;55.068;73.284;2023-07-13T14:08:18;36.50;29.00;17.75
79038;PMS5003;68436;55.068;73.284;2023-07-13T14:10:45;23.25;19.75;14.00
79038;PMS5003;68436;55.068;73.284;2023-07-13T14:13:55;20.00;18.00;11.50
79038;PMS5003;68436;55.068;73.284;2023-07-13T14:16:02;19.00;17.00;12.00
79038;PMS5003;68436;55.068;73.284;2023-07-13T14:18:27;19.00;17.00;13.00
79038;PMS5003;68436;55.068;73.284;2023-07-13T14:20:53;18.50;17.00;12.75
79038;PMS5003;68436;55.068;73.284;2023-07-13T14:23:19;16.00;15.00;11.00
79038;PMS5003;68436;55.068;73.284;2023-07-13T14:25:46;17.00;16.00;12.00
79038;PMS5003;68436;55.068;73.284;2023-07-13T14:28:23;17.00;16.00;10.67
79038;PMS5003;68436;55.068;73.284;2023-07-13T14:30:50;18.00;17.00;12.00
79038;PMS5003;68436;55.068;73.284;2023-07-13T14:33:16;18.00;16.00;12.00
79038;PMS5003;68436;55.068;73.284;2023-07-13T14:35:42;17.00;16.00;12.00
79038;PMS5003;68436;55.068;73.284;2023-07-13T14:38:09;20.00;18.00;11.00